»·PEaware :: ASA40 KBOI-KGEG

ASA40 :: KBOI-KGEG

FLIGHT INFORMATION

Flight Status: Arrived
Operator:
Alaska Airlines
More flights by this operator :: More flights under this callsign
Pilot: Steve F. (26981)
Aircraft: BOEING 737-800
(B738)
More flights by this aircraft type
Origin: KBOI Boise Air Terminal/Gowen
United States
Destination: KGEG Spokane Intl
United States
More flights between these airports :: More routes between these airports
Route: + BOI3 VALYY ODYSY
File this flight plan on PilotEdge
Remarks:
Altitude:
(Current/Filed)
36,000ft
Speed:
(Current/Filed)
430kts
Departed: 07-Sep-20 01:39 PM
Arrived: 07-Sep-20 02:28 PM
Distance/Time
Traveled:
250nm/0:49
Distance/Time
To Go:
Arrived

Flight Plot

Page will automatically refresh every two minutes.

Flight plan parsing failed; only flown route is shown


Map Options




Map Legend


Flown Route
Filed Route
Departure Airport
Arrival Airport
Navaid (VOR, NDB)
Fix

Horizontal Profiles

Position Reports

Time Latitude Longitude Heading Altitude Ground
Speed
07-Sep-20 13:20 43.567403 -116.221128 30 2879ft 0kts
07-Sep-20 13:21 43.567403 -116.221128 30 2879ft 0kts
07-Sep-20 13:22 43.567403 -116.221128 30 2879ft 0kts
07-Sep-20 13:23 43.567403 -116.221128 30 2879ft 0kts
07-Sep-20 13:24 43.567403 -116.221128 30 2879ft 0kts
07-Sep-20 13:25 43.567403 -116.221128 30 2879ft 0kts
07-Sep-20 13:26 43.567403 -116.221128 30 2879ft 0kts
07-Sep-20 13:27 43.567403 -116.221128 30 2879ft 0kts
07-Sep-20 13:28 43.567403 -116.221128 30 2879ft 0kts
07-Sep-20 13:29 43.567403 -116.221128 30 2879ft 0kts
07-Sep-20 13:30 43.567207 -116.221287 34 2879ft 2kts
07-Sep-20 13:31 43.566921 -116.222271 97 2879ft 2kts
07-Sep-20 13:32 43.567058 -116.222817 118 2879ft 0kts
07-Sep-20 13:33 43.567057 -116.222815 118 2879ft 0kts
07-Sep-20 13:34 43.567053 -116.222803 119 2879ft 0kts
07-Sep-20 13:35 43.565545 -116.219481 114 2879ft 24kts
07-Sep-20 13:36 43.561598 -116.207767 115 2879ft 35kts
07-Sep-20 13:37 43.559584 -116.202629 183 2879ft 0kts
07-Sep-20 13:38 43.559605 -116.205784 295 2879ft 53kts
07-Sep-20 13:39 43.576353 -116.255939 297 4215ft 196kts
07-Sep-20 13:40 43.604037 -116.336284 294 6333ft 267kts
07-Sep-20 13:41 43.643271 -116.423211 334 9874ft 276kts
07-Sep-20 13:42 43.721846 -116.397165 18 12279ft 336kts
07-Sep-20 13:43 43.814664 -116.339455 19 14054ft 381kts
07-Sep-20 13:44 43.912106 -116.275995 18 16546ft 393kts
07-Sep-20 13:45 44.012358 -116.210054 17 18660ft 405kts
07-Sep-20 13:46 44.115230 -116.141351 17 20798ft 412kts
07-Sep-20 13:47 44.221068 -116.080691 4 22516ft 408kts
07-Sep-20 13:48 44.332918 -116.062959 355 24147ft 406kts
07-Sep-20 13:49 44.440454 -116.089287 339 25748ft 392kts
07-Sep-20 13:50 44.545581 -116.132931 339 27230ft 393kts
07-Sep-20 13:51 44.651594 -116.178219 339 28307ft 400kts
07-Sep-20 13:52 44.757565 -116.223891 340 29850ft 394kts
07-Sep-20 13:53 44.861892 -116.269079 339 31268ft 391kts
07-Sep-20 13:54 44.965512 -116.314234 339 32625ft 389kts
07-Sep-20 13:55 45.068685 -116.359420 338 33992ft 386kts
07-Sep-20 13:56 45.170007 -116.403989 338 35414ft 379kts
07-Sep-20 13:57 45.271351 -116.448738 339 36111ft 380kts
07-Sep-20 13:58 45.371068 -116.492932 338 36131ft 373kts
07-Sep-20 13:59 45.470195 -116.537030 338 36149ft 373kts
07-Sep-20 14:00 45.569458 -116.581352 338 36158ft 372kts
07-Sep-20 14:01 45.668120 -116.625573 338 36167ft 370kts
07-Sep-20 14:02 45.766350 -116.669757 338 36170ft 370kts
07-Sep-20 14:03 45.864393 -116.714022 338 35974ft 372kts
07-Sep-20 14:04 45.963892 -116.759111 338 33487ft 376kts
07-Sep-20 14:05 46.064454 -116.804868 339 30983ft 378kts
07-Sep-20 14:06 46.165714 -116.851103 339 28486ft 385kts
07-Sep-20 14:07 46.266411 -116.897258 339 25984ft 372kts
07-Sep-20 14:08 46.362814 -116.941616 338 23486ft 356kts
07-Sep-20 14:09 46.456101 -116.984698 338 20984ft 349kts
07-Sep-20 14:10 46.547905 -117.027247 338 18485ft 344kts
07-Sep-20 14:11 46.638909 -117.069590 339 16538ft 342kts
07-Sep-20 14:12 46.729714 -117.111975 339 15921ft 343kts
07-Sep-20 14:13 46.820535 -117.154517 340 15920ft 343kts
07-Sep-20 14:14 46.911617 -117.197331 340 15922ft 344kts
07-Sep-20 14:15 47.002351 -117.240141 340 15928ft 343kts
07-Sep-20 14:16 47.093421 -117.283266 340 15708ft 340kts
07-Sep-20 14:17 47.183483 -117.326080 342 13153ft 342kts
07-Sep-20 14:18 47.260933 -117.404791 316 10856ft 345kts
07-Sep-20 14:19 47.322875 -117.497711 318 10400ft 287kts
07-Sep-20 14:20 47.376359 -117.581301 318 8697ft 281kts
07-Sep-20 14:21 47.428708 -117.665109 318 7023ft 273kts
07-Sep-20 14:22 47.482300 -117.731535 9 5986ft 217kts
07-Sep-20 14:23 47.524976 -117.681057 46 4838ft 197kts
07-Sep-20 14:24 47.560018 -117.625031 47 3926ft 169kts
07-Sep-20 14:25 47.588641 -117.582339 45 3078ft 135kts
07-Sep-20 14:26 47.616407 -117.540595 46 2382ft 137kts
07-Sep-20 14:27 47.624505 -117.531656 320 2380ft 6kts
07-Sep-20 14:28 47.624465 -117.535896 324 2380ft 16kts
07-Sep-20 14:29 47.624919 -117.536536 312 2380ft 0kts

Navigation Log

Ident Type
Flight plan parsing failed, navigation log unavailable